createdAt,value
2022-10-05T00:01:47.259Z,101460.40
2022-10-05T00:04:29.234Z,101455.80
2022-10-05T00:07:08.630Z,101445.20
2022-10-05T00:09:37.313Z,101444.00
2022-10-05T00:12:17.377Z,101444.20
2022-10-05T00:14:49.350Z,101447.00
2022-10-05T00:17:24.462Z,101450.60
2022-10-05T00:19:54.381Z,101455.40
2022-10-05T00:22:31.300Z,101450.60
2022-10-05T00:25:11.004Z,101450.40
2022-10-05T00:27:39.792Z,101447.60
2022-10-05T00:30:20.770Z,101446.80
2022-10-05T00:32:53.026Z,101446.00
2022-10-05T00:35:24.591Z,101438.00
2022-10-05T00:37:55.950Z,101429.60
2022-10-05T00:40:46.130Z,101429.80
2022-10-05T00:43:58.238Z,101431.80
2022-10-05T00:47:06.036Z,101439.80
2022-10-05T00:49:40.764Z,101447.00
2022-10-05T00:52:23.889Z,101451.60
2022-10-05T00:55:13.976Z,101454.80
2022-10-05T00:58:08.159Z,101453.40
2022-10-05T01:00:51.607Z,101450.20
2022-10-05T01:03:37.379Z,101444.00
2022-10-05T01:06:28.798Z,101440.60
2022-10-05T01:09:13.254Z,101433.60
2022-10-05T01:12:18.805Z,101428.40
2022-10-05T01:15:40.229Z,101419.20
2022-10-05T01:18:20.690Z,101416.80
2022-10-05T01:20:58.388Z,101418.80
2022-10-05T01:23:48.578Z,101425.00
2022-10-05T01:26:46.814Z,101428.00
2022-10-05T01:29:36.228Z,101426.00
2022-10-05T01:32:27.442Z,101429.20
2022-10-05T01:35:20.867Z,101433.60
2022-10-05T01:38:31.480Z,101439.00
2022-10-05T01:41:27.710Z,101433.00
2022-10-05T01:44:23.773Z,101429.20
2022-10-05T01:47:22.426Z,101443.40
2022-10-05T01:50:16.104Z,101435.80
2022-10-05T01:53:10.694Z,101427.00
2022-10-05T01:56:12.658Z,101435.00
2022-10-05T01:59:04.691Z,101433.40
2022-10-05T02:02:00.704Z,101433.00
2022-10-05T02:05:02.027Z,101430.00
2022-10-05T02:08:20.933Z,101430.00
2022-10-05T02:11:09.388Z,101428.80
2022-10-05T02:14:01.262Z,101428.60
2022-10-05T02:16:41.397Z,101416.00
2022-10-05T02:19:23.571Z,101414.60
2022-10-05T02:22:06.902Z,101407.20
2022-10-05T02:24:42.208Z,101408.40
2022-10-05T02:27:17.583Z,101414.40
2022-10-05T02:29:48.833Z,101422.80
2022-10-05T02:32:24.180Z,101417.80
2022-10-05T02:34:52.806Z,101422.20
2022-10-05T02:38:05.166Z,101422.80
2022-10-05T02:40:48.804Z,101431.20
2022-10-05T02:43:40.838Z,101428.80
2022-10-05T02:46:19.636Z,101431.80
2022-10-05T02:49:09.747Z,101423.60
2022-10-05T02:52:06.389Z,101424.60
2022-10-05T02:55:24.843Z,101413.40
2022-10-05T02:58:24.045Z,101407.80
2022-10-05T03:01:26.003Z,101413.60
2022-10-05T03:04:40.162Z,101414.60
2022-10-05T03:07:20.113Z,101406.60
2022-10-05T03:10:08.256Z,101412.60
2022-10-05T03:13:21.392Z,101405.60
2022-10-05T03:16:18.727Z,101409.40
2022-10-05T03:19:44.567Z,101409.60
2022-10-05T03:22:45.003Z,101412.20
2022-10-05T03:25:43.892Z,101422.20
2022-10-05T03:28:47.599Z,101421.00
2022-10-05T03:31:45.674Z,101417.80
2022-10-05T03:34:44.985Z,101417.80
2022-10-05T03:37:32.858Z,101415.40
2022-10-05T03:40:32.323Z,101412.00
2022-10-05T03:43:07.051Z,101408.60
2022-10-05T03:46:19.297Z,101406.00
2022-10-05T03:49:03.716Z,101403.20
2022-10-05T03:51:40.177Z,101399.20
2022-10-05T03:54:40.306Z,101398.40
2022-10-05T03:57:20.255Z,101387.20
2022-10-05T04:00:23.864Z,101396.20
2022-10-05T04:03:10.672Z,101395.00
2022-10-05T04:06:07.622Z,101395.60
2022-10-05T04:08:48.421Z,101395.20
2022-10-05T04:11:37.541Z,101395.20
2022-10-05T04:14:27.032Z,101395.60
2022-10-05T04:17:03.399Z,101386.40
2022-10-05T04:19:45.699Z,101383.80
2022-10-05T04:22:34.456Z,101385.20
2022-10-05T04:25:24.647Z,101376.80
2022-10-05T04:28:11.197Z,101379.80
2022-10-05T04:30:44.139Z,101390.00
2022-10-05T04:33:13.953Z,101389.40
2022-10-05T04:36:24.630Z,101384.80
2022-10-05T04:39:17.990Z,101379.60
2022-10-05T04:42:06.644Z,101383.00
2022-10-05T04:45:09.225Z,101384.20
2022-10-05T04:48:11.802Z,101381.40
2022-10-05T04:50:42.946Z,101372.00
2022-10-05T04:53:17.573Z,101371.20
2022-10-05T04:55:57.419Z,101370.60
2022-10-05T04:58:55.701Z,101373.20
2022-10-05T05:01:55.002Z,101374.40
2022-10-05T05:05:06.287Z,101370.80
2022-10-05T05:08:13.885Z,101372.60
2022-10-05T05:11:09.552Z,101371.60
2022-10-05T05:13:56.929Z,101379.60
2022-10-05T05:16:44.860Z,101378.80
2022-10-05T05:20:02.499Z,101375.80
2022-10-05T05:22:52.795Z,101374.00
2022-10-05T05:25:43.494Z,101372.20
2022-10-05T05:28:38.240Z,101374.60
2022-10-05T05:31:40.966Z,101376.20
2022-10-05T05:34:55.435Z,101384.20
2022-10-05T05:37:50.028Z,101391.00
2022-10-05T05:40:50.979Z,101388.00
2022-10-05T05:43:43.824Z,101388.00
2022-10-05T05:46:51.102Z,101388.00
2022-10-05T05:49:31.386Z,101394.20
2022-10-05T05:52:30.993Z,101389.40
2022-10-05T05:55:32.950Z,101382.00
2022-10-05T05:58:41.065Z,101388.00
2022-10-05T06:01:42.074Z,101387.40
2022-10-05T06:04:31.797Z,101389.80
2022-10-05T06:07:03.657Z,101385.00
2022-10-05T06:09:45.803Z,101386.80
2022-10-05T06:12:43.320Z,101383.00
2022-10-05T06:15:59.790Z,101372.60
2022-10-05T06:18:32.318Z,101372.00
2022-10-05T06:21:28.215Z,101370.80
2022-10-05T06:24:07.041Z,101363.60
2022-10-05T06:27:10.052Z,101365.40
2022-10-05T06:30:04.653Z,101358.60
2022-10-05T06:33:06.956Z,101351.20
2022-10-05T06:36:12.254Z,101352.00
2022-10-05T06:39:18.698Z,101344.00
2022-10-05T06:42:23.307Z,101350.20
2022-10-05T06:45:39.650Z,101347.60
2022-10-05T06:48:43.276Z,101347.60
2022-10-05T06:51:58.282Z,101354.60
2022-10-05T06:55:22.668Z,101350.60
2022-10-05T06:58:07.848Z,101346.20
2022-10-05T07:01:12.264Z,101352.60
2022-10-05T07:04:03.646Z,101356.80
2022-10-05T07:06:42.953Z,101355.60
2022-10-05T07:09:31.894Z,101349.40
2022-10-05T07:12:35.019Z,101341.80
2022-10-05T07:15:41.355Z,101345.00
2022-10-05T07:18:14.764Z,101343.80
2022-10-05T07:21:21.385Z,101340.60
2022-10-05T07:24:43.092Z,101340.00
2022-10-05T07:27:28.571Z,101338.20
2022-10-05T07:30:06.968Z,101334.20
2022-10-05T07:32:51.132Z,101336.60
2022-10-05T07:35:53.511Z,101332.20
2022-10-05T07:38:46.258Z,101332.40
2022-10-05T07:41:46.482Z,101322.60
2022-10-05T07:44:44.626Z,101320.80
2022-10-05T07:47:35.776Z,101316.00
2022-10-05T07:50:32.302Z,101315.60
2022-10-05T07:53:11.445Z,101315.60
2022-10-05T07:55:49.544Z,101315.40
2022-10-05T07:58:36.059Z,101312.60
2022-10-05T08:01:34.154Z,101310.60
2022-10-05T08:04:23.299Z,101308.20
2022-10-05T08:07:11.478Z,101306.40
2022-10-05T08:10:07.616Z,101296.80
2022-10-05T08:13:15.474Z,101295.40
2022-10-05T08:15:50.499Z,101294.60
2022-10-05T08:18:48.993Z,101286.20
2022-10-05T08:21:23.312Z,101281.60
2022-10-05T08:23:57.530Z,101276.20
2022-10-05T08:26:50.072Z,101280.00
2022-10-05T08:29:55.111Z,101284.00
2022-10-05T08:32:38.850Z,101286.40
2022-10-05T08:35:44.298Z,101280.00
2022-10-05T08:38:17.396Z,101279.80
2022-10-05T08:41:26.726Z,101288.80
2022-10-05T08:44:10.465Z,101282.00
2022-10-05T08:47:16.173Z,101281.20
2022-10-05T08:50:12.805Z,101287.60
2022-10-05T08:53:26.400Z,101282.40
2022-10-05T08:56:35.232Z,101287.00
2022-10-05T08:59:41.396Z,101274.80
2022-10-05T09:02:52.451Z,101266.80
2022-10-05T09:05:39.795Z,101269.80
2022-10-05T09:08:44.834Z,101267.60
2022-10-05T09:11:37.197Z,101255.60
2022-10-05T09:14:33.610Z,101263.60
2022-10-05T09:17:17.043Z,101267.20
2022-10-05T09:20:48.604Z,101267.00
2022-10-05T09:23:39.512Z,101264.20
2022-10-05T09:26:54.074Z,101252.20
2022-10-05T09:29:50.724Z,101250.80
2022-10-05T09:32:58.007Z,101256.20
2022-10-05T09:35:47.480Z,101254.20
2022-10-05T09:38:56.203Z,101255.60
2022-10-05T09:41:40.967Z,101246.40
2022-10-05T09:44:19.177Z,101243.40
2022-10-05T09:47:26.979Z,101243.80
2022-10-05T09:50:54.342Z,101248.00
2022-10-05T09:53:57.332Z,101244.40
2022-10-05T09:56:45.769Z,101235.80
2022-10-05T09:59:35.361Z,101238.40
2022-10-05T10:02:22.479Z,101233.00
2022-10-05T10:05:27.719Z,101237.00
2022-10-05T10:08:20.982Z,101235.60
2022-10-05T10:11:07.804Z,101229.80
2022-10-05T10:14:13.244Z,101234.40
2022-10-05T10:17:45.213Z,101227.40
2022-10-05T10:20:25.573Z,101232.00
2022-10-05T10:22:54.563Z,101224.20
2022-10-05T10:25:56.529Z,101234.40
2022-10-05T10:28:36.210Z,101225.40
2022-10-05T10:31:38.962Z,101226.40
2022-10-05T10:34:31.197Z,101225.00
2022-10-05T10:37:34.906Z,101217.40
2022-10-05T10:40:30.013Z,101215.40
2022-10-05T10:43:44.161Z,101217.20
2022-10-05T10:46:59.798Z,101223.20
2022-10-05T10:50:24.246Z,101227.20
2022-10-05T10:53:22.723Z,101224.60
2022-10-05T10:56:31.964Z,101226.80
2022-10-05T10:59:53.589Z,101216.20
2022-10-05T11:02:42.675Z,101224.00
2022-10-05T11:05:29.980Z,101219.20
2022-10-05T11:08:32.454Z,101215.80
2022-10-05T11:11:19.470Z,101212.20
2022-10-05T11:14:03.048Z,101203.40
2022-10-05T11:17:01.590Z,101213.00
2022-10-05T11:20:34.278Z,101213.20
2022-10-05T11:23:21.707Z,101208.80
2022-10-05T11:25:55.816Z,101208.80
2022-10-05T11:29:00.855Z,101205.40
2022-10-05T11:31:41.821Z,101196.00
2022-10-05T11:34:48.302Z,101192.80
2022-10-05T11:37:54.057Z,101196.80
2022-10-05T11:40:43.734Z,101196.00
2022-10-05T11:44:07.092Z,101187.00
2022-10-05T11:46:53.262Z,101184.80
2022-10-05T11:49:46.780Z,101183.00
2022-10-05T11:52:25.797Z,101177.20
2022-10-05T11:55:10.749Z,101177.20
2022-10-05T11:58:13.975Z,101189.60
2022-10-05T12:01:05.685Z,101183.80
2022-10-05T12:04:39.907Z,101185.20
2022-10-05T12:07:30.105Z,101176.40
2022-10-05T12:10:23.667Z,101166.00
2022-10-05T12:13:11.426Z,101165.20
2022-10-05T12:15:55.688Z,101159.20
2022-10-05T12:18:30.494Z,101159.80
2022-10-05T12:21:27.959Z,101155.40
2022-10-05T12:24:26.804Z,101153.20
2022-10-05T12:27:17.334Z,101153.00
2022-10-05T12:30:11.106Z,101152.80
2022-10-05T12:33:24.261Z,101156.80
2022-10-05T12:36:01.466Z,101154.40
2022-10-05T12:38:47.112Z,101147.60
2022-10-05T12:41:26.071Z,101141.20
2022-10-05T12:44:18.372Z,101142.40
2022-10-05T12:47:18.187Z,101138.40
2022-10-05T12:50:00.737Z,101140.60
2022-10-05T12:53:00.322Z,101140.00
2022-10-05T12:55:44.253Z,101133.20
2022-10-05T12:58:29.528Z,101127.20
2022-10-05T13:01:38.731Z,101121.20
2022-10-05T13:04:29.064Z,101114.80
2022-10-05T13:07:30.921Z,101111.60
2022-10-05T13:10:17.015Z,101096.60
2022-10-05T13:12:58.400Z,101090.00
2022-10-05T13:15:52.845Z,101095.20
2022-10-05T13:18:41.241Z,101086.40
2022-10-05T13:21:40.861Z,101085.60
2022-10-05T13:24:18.959Z,101087.80
2022-10-05T13:26:55.437Z,101089.00
2022-10-05T13:29:42.750Z,101092.80
2022-10-05T13:32:56.185Z,101093.40
2022-10-05T13:36:36.343Z,101097.20
2022-10-05T13:39:34.727Z,101095.80
2022-10-05T13:42:41.110Z,101098.60
2022-10-05T13:45:40.529Z,101095.80
2022-10-05T13:48:39.398Z,101091.80
2022-10-05T13:51:18.841Z,101090.20
2022-10-05T13:53:56.430Z,101089.20
2022-10-05T13:56:39.964Z,101088.00
2022-10-05T13:59:44.288Z,101086.40
2022-10-05T14:02:20.643Z,101088.00
2022-10-05T14:05:16.171Z,101082.20
2022-10-05T14:08:02.980Z,101087.00
2022-10-05T14:10:46.821Z,101081.20
2022-10-05T14:13:46.787Z,101080.40
2022-10-05T14:16:26.639Z,101077.20
2022-10-05T14:19:22.152Z,101068.60
2022-10-05T14:21:59.605Z,101066.00
2022-10-05T14:24:50.830Z,101067.00
2022-10-05T14:27:28.200Z,101063.60
2022-10-05T14:30:00.724Z,101061.00
2022-10-05T14:32:47.893Z,101058.60
2022-10-05T14:35:22.373Z,101055.00
2022-10-05T14:38:02.630Z,101055.20
2022-10-05T14:40:37.094Z,101053.80
2022-10-05T14:43:14.893Z,101050.80
2022-10-05T14:46:23.156Z,101045.20
2022-10-05T14:49:24.567Z,101042.40
2022-10-05T14:51:55.035Z,101040.80
2022-10-05T14:54:45.692Z,101041.60
2022-10-05T14:57:33.832Z,101041.80
2022-10-05T15:00:07.025Z,101037.00
2022-10-05T15:02:57.832Z,101033.00
2022-10-05T15:06:01.880Z,101028.20
2022-10-05T15:09:17.665Z,101024.80
2022-10-05T15:12:17.858Z,101025.80
2022-10-05T15:14:47.736Z,101021.20
2022-10-05T15:17:43.208Z,101020.00
2022-10-05T15:21:06.452Z,101019.00
2022-10-05T15:23:57.874Z,101014.20
2022-10-05T15:26:54.229Z,101014.60
2022-10-05T15:30:09.485Z,101016.00
2022-10-05T15:32:44.302Z,101012.00
2022-10-05T15:35:27.849Z,101013.80
2022-10-05T15:38:14.356Z,101011.00
2022-10-05T15:40:59.168Z,101009.60
2022-10-05T15:44:07.441Z,101008.20
2022-10-05T15:46:57.871Z,101004.20
2022-10-05T15:49:48.705Z,101010.40
2022-10-05T15:52:51.418Z,101004.00
2022-10-05T15:55:52.462Z,101006.60
2022-10-05T15:58:44.701Z,101010.20
2022-10-05T16:01:28.816Z,101011.60
2022-10-05T16:04:59.005Z,101014.40
2022-10-05T16:08:08.736Z,101016.40
2022-10-05T16:10:44.378Z,101014.40
2022-10-05T16:13:36.005Z,101018.80
2022-10-05T16:16:16.395Z,101021.80
2022-10-05T16:19:25.904Z,101024.00
2022-10-05T16:22:34.334Z,101023.20
2022-10-05T16:25:26.355Z,101023.20
2022-10-05T16:28:34.913Z,101027.60
2022-10-05T16:31:19.321Z,101033.80
2022-10-05T16:33:56.946Z,101033.00
2022-10-05T16:37:10.127Z,101032.80
2022-10-05T16:40:20.413Z,101035.00
2022-10-05T16:43:13.473Z,101038.60
2022-10-05T16:45:52.898Z,101037.80
2022-10-05T16:48:26.942Z,101047.20
2022-10-05T16:51:17.724Z,101046.20
2022-10-05T16:54:15.799Z,101050.60
2022-10-05T16:56:57.184Z,101055.80
2022-10-05T16:59:58.023Z,101059.00
2022-10-05T17:03:00.223Z,101063.60
2022-10-05T17:05:56.334Z,101064.00
2022-10-05T17:08:54.016Z,101058.40
2022-10-05T17:11:39.303Z,101053.20
2022-10-05T17:14:31.301Z,101055.20
2022-10-05T17:17:23.905Z,101058.60
2022-10-05T17:20:14.553Z,101058.20
2022-10-05T17:22:51.061Z,101052.60
2022-10-05T17:25:51.084Z,101059.80
2022-10-05T17:28:59.815Z,101056.40
2022-10-05T17:31:32.526Z,101055.60
2022-10-05T17:34:07.168Z,101060.80
2022-10-05T17:36:49.894Z,101060.00
2022-10-05T17:39:56.397Z,101056.60
2022-10-05T17:42:34.564Z,101055.20
2022-10-05T17:45:15.333Z,101055.00
2022-10-05T17:48:01.324Z,101056.40
2022-10-05T17:51:04.217Z,101052.40
2022-10-05T17:54:04.377Z,101052.60
2022-10-05T17:56:58.102Z,101047.00
2022-10-05T18:00:02.196Z,101048.20
2022-10-05T18:02:43.150Z,101052.80
2022-10-05T18:05:13.325Z,101053.60
2022-10-05T18:07:51.226Z,101053.20
2022-10-05T18:10:31.233Z,101057.20
2022-10-05T18:13:00.080Z,101061.00
2022-10-05T18:15:31.323Z,101062.20
2022-10-05T18:18:32.560Z,101061.40
2022-10-05T18:21:33.470Z,101061.40
2022-10-05T18:24:36.713Z,101060.40
2022-10-05T18:27:17.568Z,101060.80
2022-10-05T18:30:08.132Z,101064.00
2022-10-05T18:32:57.363Z,101063.80
2022-10-05T18:35:37.388Z,101059.60
2022-10-05T18:38:34.541Z,101062.20
2022-10-05T18:41:18.794Z,101062.00
2022-10-05T18:44:31.759Z,101061.80
2022-10-05T18:47:22.832Z,101065.00
2022-10-05T18:50:16.940Z,101062.40
2022-10-05T18:53:30.857Z,101072.40
2022-10-05T18:56:26.474Z,101072.40
2022-10-05T18:59:42.602Z,101073.60
2022-10-05T19:02:37.496Z,101074.60
2022-10-05T19:05:49.046Z,101078.80
2022-10-05T19:08:41.742Z,101085.60
2022-10-05T19:11:57.504Z,101084.60
2022-10-05T19:14:51.790Z,101089.60
2022-10-05T19:17:55.497Z,101083.80
2022-10-05T19:20:37.702Z,101085.40
2022-10-05T19:23:43.082Z,101090.00
2022-10-05T19:26:28.321Z,101092.00
2022-10-05T19:30:02.754Z,101095.80
2022-10-05T19:32:46.591Z,101090.20
2022-10-05T19:35:40.057Z,101095.60
2022-10-05T19:38:39.667Z,101104.00
2022-10-05T19:42:10.920Z,101107.60
2022-10-05T19:45:10.634Z,101109.60
2022-10-05T19:48:15.877Z,101110.40
2022-10-05T19:51:11.596Z,101117.80
2022-10-05T19:53:47.252Z,101119.00
2022-10-05T19:56:21.352Z,101114.60
2022-10-05T19:58:52.161Z,101108.40
2022-10-05T20:01:37.126Z,101110.00
2022-10-05T20:04:07.288Z,101112.80
2022-10-05T20:06:35.767Z,101112.20
2022-10-05T20:09:21.777Z,101112.00
2022-10-05T20:11:54.444Z,101116.60
2022-10-05T20:14:33.060Z,101111.60
2022-10-05T20:17:48.750Z,101115.80
2022-10-05T20:20:38.575Z,101119.20
2022-10-05T20:23:28.260Z,101119.80
2022-10-05T20:26:15.328Z,101119.80
2022-10-05T20:28:44.764Z,101129.80
2022-10-05T20:31:14.866Z,101132.40
2022-10-05T20:33:43.427Z,101131.40
2022-10-05T20:36:12.115Z,101140.80
2022-10-05T20:38:41.383Z,101143.40
2022-10-05T20:41:10.002Z,101147.60
2022-10-05T20:43:39.600Z,101146.80
2022-10-05T20:46:08.193Z,101152.80
2022-10-05T20:48:36.885Z,101152.80
2022-10-05T20:51:05.571Z,101156.60
2022-10-05T20:53:58.822Z,101155.80
2022-10-05T20:56:27.517Z,101159.20
2022-10-05T20:58:56.348Z,101158.00
2022-10-05T21:01:30.566Z,101159.40
2022-10-05T21:03:59.096Z,101161.60
2022-10-05T21:06:29.833Z,101159.60
2022-10-05T21:08:58.415Z,101165.00
2022-10-05T21:11:28.843Z,101165.80
2022-10-05T21:13:59.952Z,101169.40
2022-10-05T21:16:30.912Z,101165.40
2022-10-05T21:18:59.507Z,101162.20
2022-10-05T21:21:28.353Z,101165.20
2022-10-05T21:23:57.151Z,101164.60
2022-10-05T21:26:26.897Z,101171.40
2022-10-05T21:28:56.815Z,101166.60
2022-10-05T21:31:26.834Z,101171.60
2022-10-05T21:33:56.105Z,101180.40
2022-10-05T21:36:24.935Z,101177.80
2022-10-05T21:38:55.213Z,101180.20
2022-10-05T21:41:24.033Z,101178.40
2022-10-05T21:43:53.054Z,101182.00
2022-10-05T21:46:25.548Z,101185.00
2022-10-05T21:48:55.993Z,101184.80
2022-10-05T21:51:39.462Z,101181.80
2022-10-05T21:54:17.483Z,101187.00
2022-10-05T21:56:51.692Z,101188.60
2022-10-05T21:59:24.772Z,101190.80
2022-10-05T22:01:53.357Z,101187.20
2022-10-05T22:04:22.658Z,101195.20
2022-10-05T22:06:51.545Z,101202.00
2022-10-05T22:09:20.028Z,101207.80
2022-10-05T22:11:49.537Z,101203.00
2022-10-05T22:14:18.774Z,101204.60
2022-10-05T22:16:47.481Z,101205.20
2022-10-05T22:19:20.711Z,101202.00
2022-10-05T22:21:49.192Z,101204.00
2022-10-05T22:24:17.676Z,101201.00
2022-10-05T22:26:49.070Z,101204.80
2022-10-05T22:29:18.176Z,101206.00
2022-10-05T22:31:49.112Z,101209.40
2022-10-05T22:34:18.663Z,101208.80
2022-10-05T22:36:47.968Z,101213.00
2022-10-05T22:39:17.985Z,101213.20
2022-10-05T22:41:47.077Z,101214.60
2022-10-05T22:44:15.969Z,101210.80
2022-10-05T22:46:44.757Z,101211.20
2022-10-05T22:49:13.469Z,101214.60
2022-10-05T22:51:42.133Z,101218.00
2022-10-05T22:54:11.233Z,101217.00
2022-10-05T22:56:40.422Z,101222.00
2022-10-05T22:59:09.114Z,101222.40
2022-10-05T23:01:37.931Z,101224.20
2022-10-05T23:04:09.041Z,101228.20
2022-10-05T23:06:37.833Z,101227.80
2022-10-05T23:09:07.027Z,101227.20
2022-10-05T23:11:35.509Z,101227.00
2022-10-05T23:14:04.297Z,101229.00
2022-10-05T23:16:33.033Z,101225.60
2022-10-05T23:19:01.670Z,101233.60
2022-10-05T23:21:30.869Z,101237.40
2022-10-05T23:23:59.421Z,101239.60
2022-10-05T23:26:28.034Z,101235.40
2022-10-05T23:28:56.618Z,101236.00
2022-10-05T23:31:30.037Z,101234.80
2022-10-05T23:33:58.496Z,101236.60
2022-10-05T23:36:32.978Z,101232.40
2022-10-05T23:39:01.501Z,101231.80
2022-10-05T23:41:30.084Z,101235.40
2022-10-05T23:43:58.565Z,101238.60
2022-10-05T23:46:27.252Z,101244.40
2022-10-05T23:48:55.835Z,101243.20
2022-10-05T23:51:24.316Z,101244.40
2022-10-05T23:53:53.004Z,101246.40
2022-10-05T23:56:21.490Z,101247.60
2022-10-05T23:58:49.966Z,101248.60
